Time,TemperatureF,DewpointF,PressureIn,WindDirection,WindDirectionDegrees,WindSpeedMPH,WindSpeedGustMPH,Humidity,HourlyPrecipIn,Conditions,Clouds,dailyrainin,SoftwareType,DateUTC
2013-02-21 00:01:00,28.8,25.7,30.04,SW,225,0.0,2.0,88,0.00,,,0.00,Weather View 32 v70,2013-02-21 08:01:00,
2013-02-21 00:06:00,28.9,25.8,30.04,SW,225,1.0,2.0,88,0.00,,,0.00,Weather View 32 v70,2013-02-21 08:06:00,
2013-02-21 00:11:00,29.0,25.9,30.04,SW,225,1.0,2.0,88,0.00,,,0.00,Weather View 32 v70,2013-02-21 08:11:00,
2013-02-21 00:16:00,29.3,25.9,30.04,SW,225,0.0,2.0,87,0.00,,,0.00,Weather View 32 v70,2013-02-21 08:16:00,
2013-02-21 00:21:00,29.4,26.0,30.05,SW,225,0.0,2.0,87,0.00,,,0.00,Weather View 32 v70,2013-02-21 08:21:00,
2013-02-21 00:26:00,29.3,25.9,30.05,SW,225,0.0,2.0,87,0.00,,,0.00,Weather View 32 v70,2013-02-21 08:26:00,
2013-02-21 00:31:00,29.3,25.9,30.06,SW,225,0.0,2.0,87,0.00,,,0.00,Weather View 32 v70,2013-02-21 08:31:00,
2013-02-21 00:36:00,29.5,26.1,30.06,SW,225,0.0,2.0,87,0.00,,,0.00,Weather View 32 v70,2013-02-21 08:36:00,
2013-02-21 00:41:00,29.6,26.2,30.06,SW,225,0.0,2.0,87,0.00,,,0.00,Weather View 32 v70,2013-02-21 08:41:00,
2013-02-21 00:46:00,29.9,26.5,30.06,SW,225,0.0,2.0,87,0.00,,,0.00,Weather View 32 v70,2013-02-21 08:46:00,
2013-02-21 00:51:00,30.1,26.7,30.06,SW,225,0.0,2.0,87,0.00,,,0.00,Weather View 32 v70,2013-02-21 08:51:00,
2013-02-21 00:56:00,30.3,26.6,30.06,SW,225,0.0,2.0,86,0.00,,,0.00,Weather View 32 v70,2013-02-21 08:56:00,
2013-02-21 01:01:00,30.7,26.7,30.07,SW,225,0.0,2.0,85,0.00,,,0.00,Weather View 32 v70,2013-02-21 09:01:00,
2013-02-21 01:06:00,30.8,26.8,30.07,SW,225,0.0,2.0,85,0.00,,,0.00,Weather View 32 v70,2013-02-21 09:06:00,
2013-02-21 01:11:00,30.9,26.9,30.07,SW,225,0.0,2.0,85,0.00,,,0.00,Weather View 32 v70,2013-02-21 09:11:00,
2013-02-21 01:16:00,31.1,27.1,30.07,SW,225,0.0,2.0,85,0.00,,,0.00,Weather View 32 v70,2013-02-21 09:16:00,
2013-02-21 01:21:00,31.5,27.5,30.06,SSE,157,2.0,2.0,85,0.00,,,0.00,Weather View 32 v70,2013-02-21 09:21:00,
2013-02-21 01:26:00,31.8,27.8,30.06,SSE,157,0.0,3.0,85,0.00,,,0.00,Weather View 32 v70,2013-02-21 09:26:00,
2013-02-21 01:31:00,31.7,27.7,30.07,SSW,202,2.0,3.0,85,0.00,,,0.00,Weather View 32 v70,2013-02-21 09:31:00,
2013-02-21 01:36:00,31.5,27.5,30.07,SSW,202,1.0,3.0,85,0.00,,,0.00,Weather View 32 v70,2013-02-21 09:36:00,
2013-02-21 01:41:00,31.3,27.3,30.07,SSW,202,0.0,3.0,85,0.00,,,0.00,Weather View 32 v70,2013-02-21 09:41:00,
2013-02-21 01:46:00,30.9,26.9,30.07,SSW,202,1.0,3.0,85,0.00,,,0.00,Weather View 32 v70,2013-02-21 09:46:00,
2013-02-21 01:51:00,30.4,27.0,30.07,SSW,202,0.0,3.0,87,0.00,,,0.00,Weather View 32 v70,2013-02-21 09:51:00,
2013-02-21 01:56:00,30.1,26.7,30.07,SSW,202,1.0,3.0,87,0.00,,,0.00,Weather View 32 v70,2013-02-21 09:56:00,
2013-02-21 02:01:00,30.2,27.1,30.07,SSW,202,1.0,3.0,88,0.00,,,0.00,Weather View 32 v70,2013-02-21 10:01:00,
2013-02-21 02:06:00,30.2,27.1,30.07,SSW,202,0.0,3.0,88,0.00,,,0.00,Weather View 32 v70,2013-02-21 10:06:00,
2013-02-21 02:11:00,30.4,27.0,30.07,SSW,202,1.0,3.0,87,0.00,,,0.00,Weather View 32 v70,2013-02-21 10:11:00,
2013-02-21 02:16:00,30.4,27.0,30.07,SSW,202,0.0,3.0,87,0.00,,,0.00,Weather View 32 v70,2013-02-21 10:16:00,
2013-02-21 02:21:00,30.2,26.8,30.07,SSW,202,1.0,3.0,87,0.00,,,0.00,Weather View 32 v70,2013-02-21 10:21:00,
2013-02-21 02:26:00,29.9,26.8,30.07,SSW,202,0.0,2.0,88,0.00,,,0.00,Weather View 32 v70,2013-02-21 10:26:00,
2013-02-21 02:31:00,29.7,26.9,30.06,SSW,202,2.0,2.0,89,0.00,,,0.00,Weather View 32 v70,2013-02-21 10:31:00,
2013-02-21 02:36:00,29.6,26.8,30.06,SSW,202,0.0,2.0,89,0.00,,,0.00,Weather View 32 v70,2013-02-21 10:36:00,
2013-02-21 02:41:00,29.4,26.6,30.06,SSW,202,0.0,2.0,89,0.00,,,0.00,Weather View 32 v70,2013-02-21 10:41:00,
2013-02-21 02:46:00,28.9,26.3,30.06,SSW,202,0.0,2.0,90,0.00,,,0.00,Weather View 32 v70,2013-02-21 10:46:00,
2013-02-21 02:51:00,28.5,26.2,30.06,SSW,202,0.0,2.0,91,0.00,,,0.00,Weather View 32 v70,2013-02-21 10:51:00,
2013-02-21 02:56:00,27.9,25.6,30.06,SSW,202,0.0,2.0,91,0.00,,,0.00,Weather View 32 v70,2013-02-21 10:56:00,
2013-02-21 03:01:00,27.4,25.4,30.07,SSW,202,0.0,2.0,92,0.00,,,0.00,Weather View 32 v70,2013-02-21 11:01:00,
2013-02-21 03:06:00,27.0,25.0,30.07,SSW,202,0.0,2.0,92,0.00,,,0.00,Weather View 32 v70,2013-02-21 11:06:00,
2013-02-21 03:11:00,26.8,25.0,30.07,SSW,202,0.0,2.0,93,0.00,,,0.00,Weather View 32 v70,2013-02-21 11:11:00,
2013-02-21 03:16:00,26.7,25.2,30.07,SSW,202,1.0,2.0,94,0.00,,,0.00,Weather View 32 v70,2013-02-21 11:16:00,
2013-02-21 03:21:00,26.9,25.1,30.07,SSW,202,0.0,2.0,93,0.00,,,0.00,Weather View 32 v70,2013-02-21 11:21:00,
2013-02-21 03:26:00,26.9,25.1,30.08,SSW,202,0.0,2.0,93,0.00,,,0.00,Weather View 32 v70,2013-02-21 11:26:00,
2013-02-21 03:31:00,27.2,25.4,30.08,SSW,202,0.0,2.0,93,0.00,,,0.00,Weather View 32 v70,2013-02-21 11:31:00,
2013-02-21 03:36:00,27.7,25.4,30.08,SSW,202,1.0,2.0,91,0.00,,,0.00,Weather View 32 v70,2013-02-21 11:36:00,
2013-02-21 03:41:00,28.2,25.6,30.08,SSW,202,0.0,2.0,90,0.00,,,0.00,Weather View 32 v70,2013-02-21 11:41:00,
2013-02-21 03:46:00,28.3,25.7,30.08,SSW,202,0.0,2.0,90,0.00,,,0.00,Weather View 32 v70,2013-02-21 11:46:00,
2013-02-21 03:51:00,28.4,25.8,30.08,SSW,202,0.0,2.0,90,0.00,,,0.00,Weather View 32 v70,2013-02-21 11:51:00,
2013-02-21 03:56:00,28.3,25.7,30.08,SSW,202,0.0,2.0,90,0.00,,,0.00,Weather View 32 v70,2013-02-21 11:56:00,
2013-02-21 04:01:00,28.2,25.6,30.08,SSW,202,0.0,2.0,90,0.00,,,0.00,Weather View 32 v70,2013-02-21 12:01:00,
2013-02-21 04:06:00,28.3,25.7,30.08,SSW,202,1.0,2.0,90,0.00,,,0.00,Weather View 32 v70,2013-02-21 12:06:00,
2013-02-21 04:11:00,28.4,25.8,30.08,SSW,202,1.0,2.0,90,0.00,,,0.00,Weather View 32 v70,2013-02-21 12:11:00,
2013-02-21 04:16:00,29.2,26.6,30.08,South,180,0.0,2.0,90,0.00,,,0.00,Weather View 32 v70,2013-02-21 12:16:00,
2013-02-21 04:21:00,29.8,26.7,30.08,South,180,1.0,2.0,88,0.00,,,0.00,Weather View 32 v70,2013-02-21 12:21:00,
2013-02-21 04:26:00,30.2,26.8,30.08,South,180,0.0,2.0,87,0.00,,,0.00,Weather View 32 v70,2013-02-21 12:26:00,
2013-02-21 04:31:00,30.3,26.9,30.08,South,180,0.0,2.0,87,0.00,,,0.00,Weather View 32 v70,2013-02-21 12:31:00,
2013-02-21 04:36:00,30.5,26.8,30.08,South,180,1.0,2.0,86,0.00,,,0.00,Weather View 32 v70,2013-02-21 12:36:00,
2013-02-21 04:41:00,30.6,26.6,30.08,WNW,292,1.0,3.0,85,0.00,,,0.00,Weather View 32 v70,2013-02-21 12:41:00,
2013-02-21 04:46:00,30.8,26.8,30.08,WNW,292,2.0,3.0,85,0.00,,,0.00,Weather View 32 v70,2013-02-21 12:46:00,
2013-02-21 04:51:00,30.8,26.8,30.08,NW,315,0.0,4.0,85,0.00,,,0.00,Weather View 32 v70,2013-02-21 12:51:00,
2013-02-21 04:56:00,30.7,26.4,30.08,West,270,0.0,4.0,84,0.00,,,0.00,Weather View 32 v70,2013-02-21 12:56:00,
2013-02-21 05:01:00,30.3,26.3,30.08,West,270,0.0,4.0,85,0.00,,,0.00,Weather View 32 v70,2013-02-21 13:01:00,
2013-02-21 05:06:00,30.0,26.3,30.08,West,270,0.0,4.0,86,0.00,,,0.00,Weather View 32 v70,2013-02-21 13:06:00,
2013-02-21 05:11:00,29.9,26.2,30.08,West,270,0.0,4.0,86,0.00,,,0.00,Weather View 32 v70,2013-02-21 13:11:00,
2013-02-21 05:16:00,29.5,26.1,30.08,West,270,0.0,4.0,87,0.00,,,0.00,Weather View 32 v70,2013-02-21 13:16:00,
2013-02-21 05:21:00,29.1,26.0,30.08,West,270,1.0,4.0,88,0.00,,,0.00,Weather View 32 v70,2013-02-21 13:21:00,
2013-02-21 05:26:00,28.8,26.0,30.08,West,270,0.0,4.0,89,0.00,,,0.00,Weather View 32 v70,2013-02-21 13:26:00,
2013-02-21 05:31:00,28.9,25.8,30.08,West,270,0.0,4.0,88,0.00,,,0.00,Weather View 32 v70,2013-02-21 13:31:00,
2013-02-21 05:36:00,29.1,26.3,30.08,West,270,0.0,4.0,89,0.00,,,0.00,Weather View 32 v70,2013-02-21 13:36:00,
2013-02-21 05:41:00,29.1,26.0,30.08,West,270,1.0,4.0,88,0.00,,,0.00,Weather View 32 v70,2013-02-21 13:41:00,
2013-02-21 05:46:00,29.1,26.0,30.08,West,270,0.0,4.0,88,0.00,,,0.00,Weather View 32 v70,2013-02-21 13:46:00,
2013-02-21 05:51:00,28.8,25.7,30.08,West,270,0.0,1.0,88,0.00,,,0.00,Weather View 32 v70,2013-02-21 13:51:00,
2013-02-21 05:56:00,28.2,25.1,30.08,West,270,0.0,1.0,88,0.00,,,0.00,Weather View 32 v70,2013-02-21 13:56:00,
2013-02-21 06:01:00,27.8,25.2,30.08,West,270,0.0,1.0,90,0.00,,,0.00,Weather View 32 v70,2013-02-21 14:01:00,
2013-02-21 06:06:00,27.3,24.8,30.08,West,270,0.0,1.0,90,0.00,,,0.00,Weather View 32 v70,2013-02-21 14:06:00,
2013-02-21 06:11:00,26.8,24.3,30.08,West,270,0.0,1.0,90,0.00,,,0.00,Weather View 32 v70,2013-02-21 14:11:00,
2013-02-21 06:16:00,26.8,24.8,30.08,West,270,0.0,1.0,92,0.00,,,0.00,Weather View 32 v70,2013-02-21 14:16:00,
2013-02-21 06:21:00,26.6,24.6,30.08,West,270,0.0,1.0,92,0.00,,,0.00,Weather View 32 v70,2013-02-21 14:21:00,
2013-02-21 06:26:00,26.9,24.6,30.08,West,270,0.0,2.0,91,0.00,,,0.00,Weather View 32 v70,2013-02-21 14:26:00,
2013-02-21 06:31:00,26.9,24.4,30.08,West,270,2.0,2.0,90,0.00,,,0.00,Weather View 32 v70,2013-02-21 14:31:00,
2013-02-21 06:36:00,26.7,24.2,30.09,West,270,0.0,2.0,90,0.00,,,0.00,Weather View 32 v70,2013-02-21 14:36:00,
2013-02-21 06:41:00,26.4,23.9,30.10,West,270,0.0,2.0,90,0.00,,,0.00,Weather View 32 v70,2013-02-21 14:41:00,
2013-02-21 06:46:00,25.9,23.9,30.10,West,270,2.0,2.0,92,0.00,,,0.00,Weather View 32 v70,2013-02-21 14:46:00,
2013-02-21 06:51:00,25.9,23.9,30.10,West,270,0.0,2.0,92,0.00,,,0.00,Weather View 32 v70,2013-02-21 14:51:00,
2013-02-21 06:56:00,25.9,23.9,30.10,West,270,0.0,2.0,92,0.00,,,0.00,Weather View 32 v70,2013-02-21 14:56:00,
2013-02-21 07:01:00,25.9,23.9,30.10,West,270,0.0,2.0,92,0.00,,,0.00,Weather View 32 v70,2013-02-21 15:01:00,
2013-02-21 07:06:00,25.7,23.7,30.10,West,270,0.0,2.0,92,0.00,,,0.00,Weather View 32 v70,2013-02-21 15:06:00,
2013-02-21 07:11:00,25.5,23.5,30.10,West,270,0.0,2.0,92,0.00,,,0.00,Weather View 32 v70,2013-02-21 15:11:00,
2013-02-21 07:16:00,25.4,23.4,30.09,West,270,0.0,2.0,92,0.00,,,0.00,Weather View 32 v70,2013-02-21 15:16:00,
2013-02-21 07:21:00,25.5,23.8,30.09,West,270,0.0,2.0,93,0.00,,,0.00,Weather View 32 v70,2013-02-21 15:21:00,
2013-02-21 07:26:00,25.9,24.2,30.09,West,270,0.0,2.0,93,0.00,,,0.00,Weather View 32 v70,2013-02-21 15:26:00,
2013-02-21 07:31:00,26.3,24.3,30.09,West,270,0.0,2.0,92,0.00,,,0.00,Weather View 32 v70,2013-02-21 15:31:00,
2013-02-21 07:36:00,26.7,24.7,30.08,West,270,0.0,2.0,92,0.00,,,0.00,Weather View 32 v70,2013-02-21 15:36:00,
2013-02-21 07:41:00,27.4,25.4,30.08,West,270,0.0,2.0,92,0.00,,,0.00,Weather View 32 v70,2013-02-21 15:41:00,
2013-02-21 07:46:00,28.7,26.1,30.09,West,270,1.0,2.0,90,0.00,,,0.00,Weather View 32 v70,2013-02-21 15:46:00,
2013-02-21 07:51:00,30.9,27.2,30.09,SW,225,1.0,4.0,86,0.00,,,0.00,Weather View 32 v70,2013-02-21 15:51:00,
2013-02-21 07:56:00,32.8,28.2,30.09,SSW,202,4.0,5.0,83,0.00,,,0.00,Weather View 32 v70,2013-02-21 15:56:00,
2013-02-21 08:01:00,34.2,28.4,30.10,WSW,247,2.0,6.0,79,0.00,,,0.00,Weather View 32 v70,2013-02-21 16:01:00,
2013-02-21 08:06:00,34.9,28.7,30.10,SW,225,5.0,6.0,78,0.00,,,0.00,Weather View 32 v70,2013-02-21 16:06:00,
2013-02-21 08:11:00,35.7,28.6,30.10,SW,225,2.0,6.0,75,0.00,,,0.00,Weather View 32 v70,2013-02-21 16:11:00,
2013-02-21 08:16:00,35.9,28.4,30.10,SSW,202,2.0,6.0,74,0.00,,,0.00,Weather View 32 v70,2013-02-21 16:16:00,
2013-02-21 08:21:00,36.3,28.8,30.10,SSW,202,2.0,6.0,74,0.00,,,0.00,Weather View 32 v70,2013-02-21 16:21:00,
2013-02-21 08:26:00,36.3,28.1,30.10,SSE,157,5.0,6.0,72,0.00,,,0.00,Weather View 32 v70,2013-02-21 16:26:00,
2013-02-21 08:31:00,36.6,28.1,30.10,SSW,202,2.0,6.0,71,0.00,,,0.00,Weather View 32 v70,2013-02-21 16:31:00,
2013-02-21 08:37:00,36.7,27.8,30.10,SW,225,2.0,6.0,70,0.00,,,0.00,Weather View 32 v70,2013-02-21 16:37:00,
2013-02-21 08:42:00,37.2,27.6,30.10,South,180,2.0,6.0,68,0.00,,,0.00,Weather View 32 v70,2013-02-21 16:42:00,
2013-02-21 08:47:00,37.4,27.4,30.10,South,180,1.0,6.0,67,0.00,,,0.00,Weather View 32 v70,2013-02-21 16:47:00,
2013-02-21 08:52:00,38.2,28.2,30.10,WSW,247,2.0,6.0,67,0.00,,,0.00,Weather View 32 v70,2013-02-21 16:52:00,
2013-02-21 08:57:00,38.7,27.9,30.10,WSW,247,2.0,7.0,65,0.00,,,0.00,Weather View 32 v70,2013-02-21 16:57:00,
2013-02-21 09:02:00,39.2,28.0,30.10,SW,225,1.0,7.0,64,0.00,,,0.00,Weather View 32 v70,2013-02-21 17:02:00,
2013-02-21 09:07:00,39.5,27.9,30.10,SW,225,3.0,7.0,63,0.00,,,0.00,Weather View 32 v70,2013-02-21 17:07:00,
2013-02-21 09:12:00,39.8,27.0,30.10,SW,225,6.0,7.0,60,0.00,,,0.00,Weather View 32 v70,2013-02-21 17:12:00,
2013-02-21 09:17:00,39.8,26.6,30.10,SW,225,7.0,9.0,59,0.00,,,0.00,Weather View 32 v70,2013-02-21 17:17:00,
2013-02-21 09:22:00,40.0,26.8,30.11,WSW,247,2.0,9.0,59,0.00,,,0.00,Weather View 32 v70,2013-02-21 17:22:00,
2013-02-21 09:27:00,40.4,26.4,30.11,WSW,247,3.0,9.0,57,0.00,,,0.00,Weather View 32 v70,2013-02-21 17:27:00,
2013-02-21 09:32:00,40.7,26.2,30.12,South,180,2.0,10.0,56,0.00,,,0.00,Weather View 32 v70,2013-02-21 17:32:00,
2013-02-21 09:37:00,40.9,26.0,30.12,SSW,202,2.0,10.0,55,0.00,,,0.00,Weather View 32 v70,2013-02-21 17:37:00,
2013-02-21 09:42:00,40.8,25.4,30.12,WNW,292,2.0,10.0,54,0.00,,,0.00,Weather View 32 v70,2013-02-21 17:42:00,
2013-02-21 09:47:00,40.7,25.8,30.12,West,270,3.0,10.0,55,0.00,,,0.00,Weather View 32 v70,2013-02-21 17:47:00,
2013-02-21 09:52:00,40.9,25.5,30.12,WSW,247,2.0,10.0,54,0.00,,,0.00,Weather View 32 v70,2013-02-21 17:52:00,
2013-02-21 09:57:00,40.8,28.0,30.12,NW,315,2.0,10.0,60,0.00,,,0.00,Weather View 32 v70,2013-02-21 17:57:00,
2013-02-21 10:02:00,40.7,27.5,30.12,WNW,292,2.0,10.0,59,0.00,,,0.00,Weather View 32 v70,2013-02-21 18:02:00,
2013-02-21 10:07:00,40.9,27.2,30.12,NW,315,4.0,10.0,58,0.00,,,0.00,Weather View 32 v70,2013-02-21 18:07:00,
2013-02-21 10:12:00,40.9,27.2,30.12,NW,315,1.0,10.0,58,0.00,,,0.00,Weather View 32 v70,2013-02-21 18:12:00,
2013-02-21 10:17:00,41.3,26.3,30.12,WSW,247,2.0,10.0,55,0.00,,,0.00,Weather View 32 v70,2013-02-21 18:17:00,
2013-02-21 10:22:00,41.6,27.0,30.12,WSW,247,0.0,10.0,56,0.00,,,0.00,Weather View 32 v70,2013-02-21 18:22:00,
2013-02-21 10:27:00,41.8,27.2,30.12,SW,225,2.0,10.0,56,0.00,,,0.00,Weather View 32 v70,2013-02-21 18:27:00,
2013-02-21 10:32:00,42.0,26.5,30.12,West,270,2.0,10.0,54,0.00,,,0.00,Weather View 32 v70,2013-02-21 18:32:00,
2013-02-21 10:37:00,41.8,25.9,30.13,WSW,247,2.0,12.0,53,0.00,,,0.00,Weather View 32 v70,2013-02-21 18:37:00,
2013-02-21 10:42:00,41.8,25.9,30.13,South,180,4.0,12.0,53,0.00,,,0.00,Weather View 32 v70,2013-02-21 18:42:00,
2013-02-21 10:47:00,41.8,25.9,30.13,West,270,3.0,12.0,53,0.00,,,0.00,Weather View 32 v70,2013-02-21 18:47:00,
2013-02-21 10:52:00,41.7,25.3,30.13,WSW,247,2.0,12.0,52,0.00,,,0.00,Weather View 32 v70,2013-02-21 18:52:00,
2013-02-21 10:57:00,41.7,24.4,30.13,WSW,247,4.0,12.0,50,0.00,,,0.00,Weather View 32 v70,2013-02-21 18:57:00,
2013-02-21 11:02:00,41.4,24.6,30.13,SW,225,3.0,12.0,51,0.00,,,0.00,Weather View 32 v70,2013-02-21 19:02:00,
2013-02-21 11:07:00,41.5,24.7,30.13,WSW,247,6.0,12.0,51,0.00,,,0.00,Weather View 32 v70,2013-02-21 19:07:00,
2013-02-21 11:12:00,41.4,24.6,30.13,SW,225,3.0,12.0,51,0.00,,,0.00,Weather View 32 v70,2013-02-21 19:12:00,
2013-02-21 11:17:00,41.2,24.4,30.13,WSW,247,2.0,12.0,51,0.00,,,0.00,Weather View 32 v70,2013-02-21 19:17:00,
2013-02-21 11:22:00,41.6,25.3,30.13,WSW,247,2.0,12.0,52,0.00,,,0.00,Weather View 32 v70,2013-02-21 19:22:00,
2013-02-21 11:27:00,41.8,25.4,30.13,WSW,247,4.0,12.0,52,0.00,,,0.00,Weather View 32 v70,2013-02-21 19:27:00,
2013-02-21 11:32:00,41.8,25.0,30.13,SW,225,7.0,12.0,51,0.00,,,0.00,Weather View 32 v70,2013-02-21 19:32:00,
2013-02-21 11:37:00,41.6,25.3,30.13,WSW,247,2.0,11.0,52,0.00,,,0.00,Weather View 32 v70,2013-02-21 19:37:00,
2013-02-21 11:42:00,41.2,25.3,30.13,SSW,202,5.0,11.0,53,0.00,,,0.00,Weather View 32 v70,2013-02-21 19:42:00,
2013-02-21 11:47:00,41.1,25.7,30.13,SSE,157,7.0,11.0,54,0.00,,,0.00,Weather View 32 v70,2013-02-21 19:47:00,
2013-02-21 11:52:00,40.9,25.5,30.13,SW,225,7.0,12.0,54,0.00,,,0.00,Weather View 32 v70,2013-02-21 19:52:00,
2013-02-21 11:57:00,41.2,26.2,30.13,SSW,202,2.0,12.0,55,0.00,,,0.00,Weather View 32 v70,2013-02-21 19:57:00,
2013-02-21 12:02:00,41.2,25.8,30.13,SSW,202,7.0,12.0,54,0.00,,,0.00,Weather View 32 v70,2013-02-21 20:02:00,
2013-02-21 12:07:00,41.2,25.8,30.13,South,180,7.0,12.0,54,0.00,,,0.00,Weather View 32 v70,2013-02-21 20:07:00,
2013-02-21 12:12:00,41.4,26.0,30.13,SW,225,4.0,12.0,54,0.00,,,0.00,Weather View 32 v70,2013-02-21 20:12:00,
2013-02-21 12:18:00,41.5,26.1,30.12,SW,225,4.0,12.0,54,0.00,,,0.00,Weather View 32 v70,2013-02-21 20:18:00,
2013-02-21 12:23:00,41.2,25.8,30.13,WSW,247,2.0,12.0,54,0.00,,,0.00,Weather View 32 v70,2013-02-21 20:23:00,
2013-02-21 12:28:00,41.2,26.2,30.13,NW,315,4.0,12.0,55,0.00,,,0.00,Weather View 32 v70,2013-02-21 20:28:00,
2013-02-21 12:33:00,41.0,26.0,30.13,West,270,1.0,12.0,55,0.00,,,0.00,Weather View 32 v70,2013-02-21 20:33:00,
2013-02-21 12:38:00,40.9,26.0,30.13,West,270,1.0,12.0,55,0.00,,,0.00,Weather View 32 v70,2013-02-21 20:38:00,
2013-02-21 12:43:00,40.9,26.0,30.13,SW,225,7.0,12.0,55,0.00,,,0.00,Weather View 32 v70,2013-02-21 20:43:00,
2013-02-21 12:48:00,40.7,25.8,30.13,West,270,2.0,12.0,55,0.00,,,0.00,Weather View 32 v70,2013-02-21 20:48:00,
2013-02-21 12:53:00,40.7,25.8,30.13,SW,225,1.0,11.0,55,0.00,,,0.00,Weather View 32 v70,2013-02-21 20:53:00,
2013-02-21 12:58:00,40.7,26.2,30.13,SSW,202,1.0,11.0,56,0.00,,,0.00,Weather View 32 v70,2013-02-21 20:58:00,
2013-02-21 13:03:00,40.7,26.2,30.13,SW,225,2.0,11.0,56,0.00,,,0.00,Weather View 32 v70,2013-02-21 21:03:00,
2013-02-21 13:08:00,40.9,26.0,30.13,SW,225,2.0,11.0,55,0.00,,,0.00,Weather View 32 v70,2013-02-21 21:08:00,
2013-02-21 13:13:00,40.9,26.0,30.12,West,270,3.0,13.0,55,0.00,,,0.00,Weather View 32 v70,2013-02-21 21:13:00,
2013-02-21 13:18:00,41.2,26.2,30.12,SSW,202,5.0,13.0,55,0.00,,,0.00,Weather View 32 v70,2013-02-21 21:18:00,
2013-02-21 13:23:00,41.3,26.3,30.12,SW,225,3.0,13.0,55,0.00,,,0.00,Weather View 32 v70,2013-02-21 21:23:00,
2013-02-21 13:28:00,41.4,26.4,30.12,SW,225,4.0,13.0,55,0.00,,,0.00,Weather View 32 v70,2013-02-21 21:28:00,
2013-02-21 13:33:00,41.3,26.8,30.12,WSW,247,4.0,13.0,56,0.00,,,0.00,Weather View 32 v70,2013-02-21 21:33:00,
2013-02-21 13:38:00,41.4,26.4,30.12,SW,225,2.0,13.0,55,0.00,,,0.00,Weather View 32 v70,2013-02-21 21:38:00,
2013-02-21 13:43:00,41.8,26.8,30.12,WSW,247,4.0,13.0,55,0.00,,,0.00,Weather View 32 v70,2013-02-21 21:43:00,
2013-02-21 13:48:00,41.9,26.4,30.11,West,270,2.0,13.0,54,0.00,,,0.00,Weather View 32 v70,2013-02-21 21:48:00,
2013-02-21 13:53:00,41.6,26.6,30.11,SW,225,4.0,14.0,55,0.00,,,0.00,Weather View 32 v70,2013-02-21 21:53:00,
2013-02-21 13:58:00,41.7,26.7,30.11,SW,225,4.0,14.0,55,0.00,,,0.00,Weather View 32 v70,2013-02-21 21:58:00,
2013-02-21 14:03:00,41.9,26.4,30.11,SW,225,6.0,14.0,54,0.00,,,0.00,Weather View 32 v70,2013-02-21 22:03:00,
2013-02-21 14:08:00,41.8,26.4,30.11,West,270,4.0,14.0,54,0.00,,,0.00,Weather View 32 v70,2013-02-21 22:08:00,
2013-02-21 14:13:00,41.6,26.6,30.11,South,180,7.0,15.0,55,0.00,,,0.00,Weather View 32 v70,2013-02-21 22:13:00,
2013-02-21 14:18:00,41.2,26.7,30.11,South,180,7.0,15.0,56,0.00,,,0.00,Weather View 32 v70,2013-02-21 22:18:00,
2013-02-21 14:23:00,41.1,27.0,30.11,SE,135,3.0,15.0,57,0.00,,,0.00,Weather View 32 v70,2013-02-21 22:23:00,
2013-02-21 14:28:00,41.1,27.0,30.11,SSW,202,4.0,15.0,57,0.00,,,0.00,Weather View 32 v70,2013-02-21 22:28:00,
2013-02-21 14:33:00,41.2,26.7,30.11,WSW,247,2.0,15.0,56,0.00,,,0.00,Weather View 32 v70,2013-02-21 22:33:00,
2013-02-21 14:38:00,41.2,27.1,30.11,SW,225,7.0,15.0,57,0.00,,,0.00,Weather View 32 v70,2013-02-21 22:38:00,
2013-02-21 14:43:00,41.2,27.1,30.12,West,270,3.0,15.0,57,0.00,,,0.00,Weather View 32 v70,2013-02-21 22:43:00,
2013-02-21 14:48:00,41.6,27.5,30.11,WSW,247,2.0,15.0,57,0.00,,,0.00,Weather View 32 v70,2013-02-21 22:48:00,
2013-02-21 14:53:00,41.8,26.8,30.11,SW,225,3.0,15.0,55,0.00,,,0.00,Weather View 32 v70,2013-02-21 22:53:00,
2013-02-21 14:58:00,42.2,27.2,30.11,SW,225,8.0,15.0,55,0.00,,,0.00,Weather View 32 v70,2013-02-21 22:58:00,
2013-02-21 15:03:00,42.2,26.7,30.11,WSW,247,4.0,15.0,54,0.00,,,0.00,Weather View 32 v70,2013-02-21 23:03:00,
2013-02-21 15:08:00,42.1,26.6,30.11,WSW,247,4.0,15.0,54,0.00,,,0.00,Weather View 32 v70,2013-02-21 23:08:00,
2013-02-21 15:14:00,42.1,26.6,30.11,WSW,247,2.0,14.0,54,0.00,,,0.00,Weather View 32 v70,2013-02-21 23:14:00,
2013-02-21 15:19:00,42.3,27.3,30.11,South,180,4.0,14.0,55,0.00,,,0.00,Weather View 32 v70,2013-02-21 23:19:00,
2013-02-21 15:24:00,42.4,26.9,30.11,WSW,247,4.0,14.0,54,0.00,,,0.00,Weather View 32 v70,2013-02-21 23:24:00,
2013-02-21 15:29:00,42.5,27.0,30.11,SW,225,4.0,13.0,54,0.00,,,0.00,Weather View 32 v70,2013-02-21 23:29:00,
2013-02-21 15:34:00,42.6,27.5,30.10,SW,225,7.0,13.0,55,0.00,,,0.00,Weather View 32 v70,2013-02-21 23:34:00,
2013-02-21 15:39:00,42.5,27.0,30.10,WSW,247,2.0,13.0,54,0.00,,,0.00,Weather View 32 v70,2013-02-21 23:39:00,
2013-02-21 15:44:00,42.4,27.4,30.11,WSW,247,3.0,13.0,55,0.00,,,0.00,Weather View 32 v70,2013-02-21 23:44:00,
2013-02-21 15:49:00,42.3,27.3,30.10,SW,225,0.0,13.0,55,0.00,,,0.00,Weather View 32 v70,2013-02-21 23:49:00,
2013-02-21 15:54:00,42.2,27.2,30.10,WSW,247,2.0,13.0,55,0.00,,,0.00,Weather View 32 v70,2013-02-21 23:54:00,
2013-02-21 15:59:00,42.0,27.0,30.11,WSW,247,3.0,13.0,55,0.00,,,0.00,Weather View 32 v70,2013-02-21 23:59:00,
2013-02-21 16:04:00,41.9,27.3,30.11,SW,225,5.0,13.0,56,0.00,,,0.00,Weather View 32 v70,2013-02-22 00:04:00,
2013-02-21 16:09:00,41.9,27.3,30.11,WSW,247,2.0,13.0,56,0.00,,,0.00,Weather View 32 v70,2013-02-22 00:09:00,
2013-02-21 16:14:00,41.8,27.7,30.11,SW,225,4.0,12.0,57,0.00,,,0.00,Weather View 32 v70,2013-02-22 00:14:00,
2013-02-21 16:19:00,41.6,27.9,30.11,SSW,202,3.0,12.0,58,0.00,,,0.00,Weather View 32 v70,2013-02-22 00:19:00,
2013-02-21 16:24:00,41.4,27.7,30.11,WSW,247,2.0,12.0,58,0.00,,,0.00,Weather View 32 v70,2013-02-22 00:24:00,
2013-02-21 16:29:00,41.3,28.0,30.11,SW,225,3.0,12.0,59,0.00,,,0.00,Weather View 32 v70,2013-02-22 00:29:00,
2013-02-21 16:34:00,41.2,27.9,30.11,SW,225,2.0,12.0,59,0.00,,,0.00,Weather View 32 v70,2013-02-22 00:34:00,
2013-02-21 16:39:00,41.0,28.2,30.10,SW,225,4.0,12.0,60,0.00,,,0.00,Weather View 32 v70,2013-02-22 00:39:00,
2013-02-21 16:44:00,40.9,28.5,30.11,SSW,202,2.0,12.0,61,0.00,,,0.00,Weather View 32 v70,2013-02-22 00:44:00,
2013-02-21 16:49:00,40.8,28.4,30.10,SW,225,2.0,12.0,61,0.00,,,0.00,Weather View 32 v70,2013-02-22 00:49:00,
2013-02-21 16:54:00,40.7,28.7,30.10,SSW,202,4.0,12.0,62,0.00,,,0.00,Weather View 32 v70,2013-02-22 00:54:00,
2013-02-21 16:59:00,40.6,28.6,30.10,SW,225,2.0,12.0,62,0.00,,,0.00,Weather View 32 v70,2013-02-22 00:59:00,
2013-02-21 17:04:00,40.6,29.0,30.10,WSW,247,10.0,11.0,63,0.00,,,0.00,Weather View 32 v70,2013-02-22 01:04:00,
2013-02-21 17:09:00,40.5,28.9,30.10,West,270,3.0,11.0,63,0.00,,,0.00,Weather View 32 v70,2013-02-22 01:09:00,
2013-02-21 17:14:00,40.3,29.1,30.10,SW,225,2.0,11.0,64,0.00,,,0.00,Weather View 32 v70,2013-02-22 01:14:00,
2013-02-21 17:19:00,40.1,28.9,30.10,SW,225,3.0,11.0,64,0.00,,,0.00,Weather View 32 v70,2013-02-22 01:19:00,
2013-02-21 17:24:00,39.9,29.1,30.10,WSW,247,5.0,11.0,65,0.00,,,0.00,Weather View 32 v70,2013-02-22 01:24:00,
2013-02-21 17:29:00,39.7,28.9,30.10,SW,225,3.0,11.0,65,0.00,,,0.00,Weather View 32 v70,2013-02-22 01:29:00,
2013-02-21 17:34:00,39.6,28.8,30.10,SW,225,3.0,11.0,65,0.00,,,0.00,Weather View 32 v70,2013-02-22 01:34:00,
2013-02-21 17:39:00,39.4,28.6,30.10,South,180,4.0,11.0,65,0.00,,,0.00,Weather View 32 v70,2013-02-22 01:39:00,
2013-02-21 17:45:00,39.3,28.5,30.10,SW,225,2.0,11.0,65,0.00,,,0.00,Weather View 32 v70,2013-02-22 01:45:00,
2013-02-21 17:50:00,39.3,28.5,30.10,SW,225,3.0,11.0,65,0.00,,,0.00,Weather View 32 v70,2013-02-22 01:50:00,
2013-02-21 17:55:00,39.2,28.8,30.10,SSW,202,6.0,10.0,66,0.00,,,0.00,Weather View 32 v70,2013-02-22 01:55:00,
2013-02-21 18:00:00,39.2,28.8,30.11,South,180,4.0,12.0,66,0.00,,,0.00,Weather View 32 v70,2013-02-22 02:00:00,
2013-02-21 18:05:00,39.1,28.7,30.10,SSW,202,4.0,12.0,66,0.00,,,0.00,Weather View 32 v70,2013-02-22 02:05:00,
2013-02-21 18:10:00,39.0,28.6,30.11,SW,225,2.0,12.0,66,0.00,,,0.00,Weather View 32 v70,2013-02-22 02:10:00,
2013-02-21 18:15:00,38.9,28.9,30.11,SSE,157,2.0,12.0,67,0.00,,,0.00,Weather View 32 v70,2013-02-22 02:15:00,
2013-02-21 18:20:00,38.8,28.8,30.11,SW,225,1.0,12.0,67,0.00,,,0.00,Weather View 32 v70,2013-02-22 02:20:00,
2013-02-21 18:25:00,38.8,28.8,30.11,SW,225,2.0,12.0,67,0.00,,,0.00,Weather View 32 v70,2013-02-22 02:25:00,
2013-02-21 18:30:00,38.8,28.4,30.11,SW,225,1.0,12.0,66,0.00,,,0.00,Weather View 32 v70,2013-02-22 02:30:00,
2013-02-21 18:35:00,38.7,28.3,30.12,WSW,247,1.0,12.0,66,0.00,,,0.00,Weather View 32 v70,2013-02-22 02:35:00,
2013-02-21 18:40:00,38.6,28.2,30.12,SW,225,2.0,12.0,66,0.00,,,0.00,Weather View 32 v70,2013-02-22 02:40:00,
2013-02-21 18:45:00,38.5,28.1,30.12,WSW,247,1.0,12.0,66,0.00,,,0.00,Weather View 32 v70,2013-02-22 02:45:00,
2013-02-21 18:50:00,38.5,27.7,30.12,SW,225,2.0,12.0,65,0.00,,,0.00,Weather View 32 v70,2013-02-22 02:50:00,
2013-02-21 18:55:00,38.4,28.0,30.12,WSW,247,1.0,12.0,66,0.00,,,0.00,Weather View 32 v70,2013-02-22 02:55:00,
2013-02-21 19:00:00,38.4,27.7,30.12,WSW,247,3.0,10.0,65,0.00,,,0.00,Weather View 32 v70,2013-02-22 03:00:00,
2013-02-21 19:05:00,38.4,27.7,30.12,SW,225,2.0,9.0,65,0.00,,,0.00,Weather View 32 v70,2013-02-22 03:05:00,
2013-02-21 19:10:00,38.4,27.7,30.13,SW,225,1.0,9.0,65,0.00,,,0.00,Weather View 32 v70,2013-02-22 03:10:00,
2013-02-21 19:15:00,38.4,27.7,30.13,SSW,202,1.0,7.0,65,0.00,,,0.00,Weather View 32 v70,2013-02-22 03:15:00,
2013-02-21 19:20:00,38.5,27.7,30.13,SW,225,2.0,7.0,65,0.00,,,0.00,Weather View 32 v70,2013-02-22 03:20:00,
2013-02-21 19:25:00,38.5,27.7,30.13,SW,225,0.0,7.0,65,0.00,,,0.00,Weather View 32 v70,2013-02-22 03:25:00,
2013-02-21 19:30:00,38.4,27.7,30.13,South,180,0.0,7.0,65,0.00,,,0.00,Weather View 32 v70,2013-02-22 03:30:00,
2013-02-21 19:35:00,38.3,27.6,30.13,SW,225,2.0,7.0,65,0.00,,,0.00,Weather View 32 v70,2013-02-22 03:35:00,
2013-02-21 19:40:00,38.2,27.8,30.14,SW,225,1.0,7.0,66,0.00,,,0.00,Weather View 32 v70,2013-02-22 03:40:00,
2013-02-21 19:45:00,38.1,27.7,30.13,SW,225,1.0,7.0,66,0.00,,,0.00,Weather View 32 v70,2013-02-22 03:45:00,
2013-02-21 19:50:00,38.2,27.8,30.13,SSE,157,1.0,7.0,66,0.00,,,0.00,Weather View 32 v70,2013-02-22 03:50:00,
2013-02-21 19:55:00,38.3,27.9,30.13,SW,225,2.0,7.0,66,0.00,,,0.00,Weather View 32 v70,2013-02-22 03:55:00,
2013-02-21 20:00:00,38.4,27.7,30.13,SW,225,6.0,7.0,65,0.00,,,0.00,Weather View 32 v70,2013-02-22 04:00:00,
2013-02-21 20:05:00,38.5,27.7,30.13,SSW,202,2.0,6.0,65,0.00,,,0.00,Weather View 32 v70,2013-02-22 04:05:00,
2013-02-21 20:10:00,38.5,27.7,30.13,South,180,1.0,6.0,65,0.00,,,0.00,Weather View 32 v70,2013-02-22 04:10:00,
2013-02-21 20:16:00,38.4,27.7,30.13,SSW,202,2.0,6.0,65,0.00,,,0.00,Weather View 32 v70,2013-02-22 04:16:00,
2013-02-21 20:21:00,38.3,27.9,30.12,SW,225,3.0,6.0,66,0.00,,,0.00,Weather View 32 v70,2013-02-22 04:21:00,
2013-02-21 20:26:00,38.3,27.9,30.13,SW,225,1.0,6.0,66,0.00,,,0.00,Weather View 32 v70,2013-02-22 04:26:00,
2013-02-21 20:31:00,38.3,27.9,30.13,SW,225,2.0,6.0,66,0.00,,,0.00,Weather View 32 v70,2013-02-22 04:31:00,
2013-02-21 20:36:00,38.2,27.8,30.13,SSW,202,1.0,6.0,66,0.00,,,0.00,Weather View 32 v70,2013-02-22 04:36:00,
2013-02-21 20:41:00,38.1,27.7,30.13,SSW,202,3.0,6.0,66,0.00,,,0.00,Weather View 32 v70,2013-02-22 04:41:00,
2013-02-21 20:46:00,38.2,27.8,30.13,SW,225,2.0,7.0,66,0.00,,,0.00,Weather View 32 v70,2013-02-22 04:46:00,
2013-02-21 20:51:00,38.2,27.8,30.13,SW,225,3.0,8.0,66,0.00,,,0.00,Weather View 32 v70,2013-02-22 04:51:00,
2013-02-21 20:56:00,38.2,27.8,30.13,WSW,247,2.0,8.0,66,0.00,,,0.00,Weather View 32 v70,2013-02-22 04:56:00,
2013-02-21 21:00:00,38.1,27.4,30.13,SW,225,2.0,8.0,65,0.00,,,0.00,Weather View 32 v70,2013-02-22 05:00:00,
2013-02-21 21:01:00,38.1,27.4,30.13,SW,225,4.0,8.0,65,0.00,,,0.00,Weather View 32 v70,2013-02-22 05:01:00,
2013-02-21 21:06:00,38.2,27.5,30.13,West,270,2.0,9.0,65,0.00,,,0.00,Weather View 32 v70,2013-02-22 05:06:00,
2013-02-21 21:11:00,38.3,27.6,30.13,SSW,202,2.0,10.0,65,0.00,,,0.00,Weather View 32 v70,2013-02-22 05:11:00,
2013-02-21 21:16:00,38.1,27.4,30.13,SW,225,2.0,10.0,65,0.00,,,0.00,Weather View 32 v70,2013-02-22 05:16:00,
2013-02-21 21:21:00,38.1,27.4,30.13,SW,225,1.0,10.0,65,0.00,,,0.00,Weather View 32 v70,2013-02-22 05:21:00,
2013-02-21 21:26:00,38.0,27.3,30.13,SW,225,2.0,10.0,65,0.00,,,0.00,Weather View 32 v70,2013-02-22 05:26:00,
2013-02-21 21:31:00,37.9,27.2,30.13,SW,225,0.0,10.0,65,0.00,,,0.00,Weather View 32 v70,2013-02-22 05:31:00,
2013-02-21 21:36:00,37.8,27.1,30.13,SW,225,0.0,10.0,65,0.00,,,0.00,Weather View 32 v70,2013-02-22 05:36:00,
2013-02-21 21:41:00,37.5,27.2,30.13,SW,225,0.0,10.0,66,0.00,,,0.00,Weather View 32 v70,2013-02-22 05:41:00,
2013-02-21 21:46:00,37.4,27.1,30.14,SW,225,0.0,10.0,66,0.00,,,0.00,Weather View 32 v70,2013-02-22 05:46:00,
2013-02-21 21:51:00,37.5,26.8,30.14,SSW,202,2.0,10.0,65,0.00,,,0.00,Weather View 32 v70,2013-02-22 05:51:00,
2013-02-21 21:56:00,37.7,27.0,30.13,South,180,1.0,10.0,65,0.00,,,0.00,Weather View 32 v70,2013-02-22 05:56:00,
2013-02-21 22:01:00,37.8,27.1,30.13,SSW,202,4.0,10.0,65,0.00,,,0.00,Weather View 32 v70,2013-02-22 06:01:00,
2013-02-21 22:06:00,37.9,26.8,30.14,SSW,202,3.0,10.0,64,0.00,,,0.00,Weather View 32 v70,2013-02-22 06:06:00,
2013-02-21 22:11:00,37.9,27.2,30.13,SW,225,0.0,6.0,65,0.00,,,0.00,Weather View 32 v70,2013-02-22 06:11:00,
2013-02-21 22:16:00,37.9,27.2,30.13,SW,225,0.0,6.0,65,0.00,,,0.00,Weather View 32 v70,2013-02-22 06:16:00,
2013-02-21 22:21:00,37.7,27.0,30.14,SW,225,0.0,6.0,65,0.00,,,0.00,Weather View 32 v70,2013-02-22 06:21:00,
2013-02-21 22:26:00,37.5,26.8,30.14,SW,225,0.0,6.0,65,0.00,,,0.00,Weather View 32 v70,2013-02-22 06:26:00,
2013-02-21 22:31:00,37.4,26.7,30.14,SW,225,0.0,6.0,65,0.00,,,0.00,Weather View 32 v70,2013-02-22 06:31:00,
2013-02-21 22:36:00,37.5,26.8,30.14,South,180,1.0,6.0,65,0.00,,,0.00,Weather View 32 v70,2013-02-22 06:36:00,
2013-02-21 22:41:00,37.6,26.9,30.14,SSE,157,0.0,6.0,65,0.00,,,0.00,Weather View 32 v70,2013-02-22 06:41:00,
2013-02-21 22:46:00,37.5,26.8,30.14,SSE,157,1.0,6.0,65,0.00,,,0.00,Weather View 32 v70,2013-02-22 06:46:00,
2013-02-21 22:51:00,37.5,26.8,30.14,SSE,157,1.0,6.0,65,0.00,,,0.00,Weather View 32 v70,2013-02-22 06:51:00,
2013-02-21 22:56:00,37.4,26.7,30.13,SSE,157,0.0,6.0,65,0.00,,,0.00,Weather View 32 v70,2013-02-22 06:56:00,
2013-02-21 23:01:00,37.3,26.6,30.14,South,180,0.0,6.0,65,0.00,,,0.00,Weather View 32 v70,2013-02-22 07:01:00,
2013-02-21 23:06:00,37.3,26.6,30.14,SSW,202,0.0,6.0,65,0.00,,,0.00,Weather View 32 v70,2013-02-22 07:06:00,
2013-02-21 23:11:00,37.3,26.6,30.14,SSW,202,0.0,6.0,65,0.00,,,0.00,Weather View 32 v70,2013-02-22 07:11:00,
2013-02-21 23:17:00,37.3,27.0,30.14,SSW,202,1.0,6.0,66,0.00,,,0.00,Weather View 32 v70,2013-02-22 07:17:00,
2013-02-21 23:22:00,37.4,27.1,30.14,South,180,0.0,6.0,66,0.00,,,0.00,Weather View 32 v70,2013-02-22 07:22:00,
2013-02-21 23:27:00,37.5,26.8,30.14,South,180,0.0,6.0,65,0.00,,,0.00,Weather View 32 v70,2013-02-22 07:27:00,
2013-02-21 23:32:00,37.4,27.1,30.14,South,180,0.0,6.0,66,0.00,,,0.00,Weather View 32 v70,2013-02-22 07:32:00,
2013-02-21 23:37:00,37.3,27.0,30.14,South,180,1.0,4.0,66,0.00,,,0.00,Weather View 32 v70,2013-02-22 07:37:00,
2013-02-21 23:42:00,37.3,27.3,30.14,SSW,202,1.0,4.0,67,0.00,,,0.00,Weather View 32 v70,2013-02-22 07:42:00,
2013-02-21 23:47:00,37.4,27.1,30.14,SW,225,1.0,4.0,66,0.00,,,0.00,Weather View 32 v70,2013-02-22 07:47:00,
2013-02-21 23:52:00,37.7,27.4,30.14,SW,225,2.0,4.0,66,0.00,,,0.00,Weather View 32 v70,2013-02-22 07:52:00,
2013-02-21 23:57:00,37.6,27.3,30.13,SW,225,0.0,4.0,66,0.00,,,0.00,Weather View 32 v70,2013-02-22 07:57:00,